sensor_id;sensor_type;location;lat;lon;timestamp;P1;durP1;ratioP1;P2;durP2;ratioP2
5414;SDS011;2730;51.512;7.504;2023-11-22T00:01:34;9.23;;;4.40;;
5414;SDS011;2730;51.512;7.504;2023-11-22T00:04:01;7.18;;;4.15;;
5414;SDS011;2730;51.512;7.504;2023-11-22T00:06:28;8.73;;;4.15;;
5414;SDS011;2730;51.512;7.504;2023-11-22T00:08:55;6.50;;;3.85;;
5414;SDS011;2730;51.512;7.504;2023-11-22T00:11:24;7.95;;;4.55;;
5414;SDS011;2730;51.512;7.504;2023-11-22T00:13:50;6.20;;;4.25;;
5414;SDS011;2730;51.512;7.504;2023-11-22T00:16:20;7.03;;;4.30;;
5414;SDS011;2730;51.512;7.504;2023-11-22T00:18:48;5.28;;;4.00;;
5414;SDS011;2730;51.512;7.504;2023-11-22T00:21:15;11.25;;;5.30;;
5414;SDS011;2730;51.512;7.504;2023-11-22T00:23:42;7.03;;;4.50;;
5414;SDS011;2730;51.512;7.504;2023-11-22T00:26:09;7.30;;;4.32;;
5414;SDS011;2730;51.512;7.504;2023-11-22T00:28:37;8.32;;;4.72;;
5414;SDS011;2730;51.512;7.504;2023-11-22T00:31:04;7.65;;;5.03;;
5414;SDS011;2730;51.512;7.504;2023-11-22T00:33:31;8.50;;;4.00;;
5414;SDS011;2730;51.512;7.504;2023-11-22T00:35:59;7.20;;;4.60;;
5414;SDS011;2730;51.512;7.504;2023-11-22T00:38:29;8.63;;;4.28;;
5414;SDS011;2730;51.512;7.504;2023-11-22T00:40:56;8.10;;;4.95;;
5414;SDS011;2730;51.512;7.504;2023-11-22T00:43:23;10.35;;;5.88;;
5414;SDS011;2730;51.512;7.504;2023-11-22T00:45:51;5.70;;;4.20;;
5414;SDS011;2730;51.512;7.504;2023-11-22T00:48:18;7.47;;;4.65;;
5414;SDS011;2730;51.512;7.504;2023-11-22T00:50:45;11.60;;;5.35;;
5414;SDS011;2730;51.512;7.504;2023-11-22T00:53:12;12.10;;;5.65;;
5414;SDS011;2730;51.512;7.504;2023-11-22T00:55:39;9.95;;;5.20;;
5414;SDS011;2730;51.512;7.504;2023-11-22T00:58:07;8.98;;;5.95;;
5414;SDS011;2730;51.512;7.504;2023-11-22T01:00:34;8.23;;;5.30;;
5414;SDS011;2730;51.512;7.504;2023-11-22T01:03:02;9.23;;;5.63;;
5414;SDS011;2730;51.512;7.504;2023-11-22T01:05:30;14.45;;;5.43;;
5414;SDS011;2730;51.512;7.504;2023-11-22T01:07:56;9.90;;;5.55;;
5414;SDS011;2730;51.512;7.504;2023-11-22T01:10:23;19.05;;;7.45;;
5414;SDS011;2730;51.512;7.504;2023-11-22T01:12:50;10.00;;;5.60;;
5414;SDS011;2730;51.512;7.504;2023-11-22T01:15:18;4.88;;;4.32;;
5414;SDS011;2730;51.512;7.504;2023-11-22T01:17:45;7.28;;;4.90;;
5414;SDS011;2730;51.512;7.504;2023-11-22T01:20:14;9.70;;;5.35;;
5414;SDS011;2730;51.512;7.504;2023-11-22T01:22:41;13.90;;;5.63;;
5414;SDS011;2730;51.512;7.504;2023-11-22T01:25:08;10.90;;;5.88;;
5414;SDS011;2730;51.512;7.504;2023-11-22T01:27:35;10.27;;;4.75;;
5414;SDS011;2730;51.512;7.504;2023-11-22T01:30:02;18.92;;;5.70;;
5414;SDS011;2730;51.512;7.504;2023-11-22T01:32:32;7.00;;;4.22;;
5414;SDS011;2730;51.512;7.504;2023-11-22T01:34:59;8.35;;;5.32;;
5414;SDS011;2730;51.512;7.504;2023-11-22T01:37:27;7.97;;;4.35;;
5414;SDS011;2730;51.512;7.504;2023-11-22T01:39:54;9.40;;;4.07;;
5414;SDS011;2730;51.512;7.504;2023-11-22T01:42:22;12.07;;;5.25;;
5414;SDS011;2730;51.512;7.504;2023-11-22T01:44:50;8.60;;;4.70;;
5414;SDS011;2730;51.512;7.504;2023-11-22T01:47:17;5.53;;;4.25;;
5414;SDS011;2730;51.512;7.504;2023-11-22T01:49:45;10.10;;;4.50;;
5414;SDS011;2730;51.512;7.504;2023-11-22T01:52:12;8.88;;;4.13;;
5414;SDS011;2730;51.512;7.504;2023-11-22T01:54:41;8.70;;;4.85;;
5414;SDS011;2730;51.512;7.504;2023-11-22T01:57:09;11.95;;;4.75;;
5414;SDS011;2730;51.512;7.504;2023-11-22T01:59:37;7.82;;;4.30;;
5414;SDS011;2730;51.512;7.504;2023-11-22T02:02:05;5.72;;;4.20;;
5414;SDS011;2730;51.512;7.504;2023-11-22T02:04:32;8.10;;;4.50;;
5414;SDS011;2730;51.512;7.504;2023-11-22T02:06:58;6.43;;;4.10;;
5414;SDS011;2730;51.512;7.504;2023-11-22T02:09:25;8.00;;;4.13;;
5414;SDS011;2730;51.512;7.504;2023-11-22T02:11:53;7.82;;;4.32;;
5414;SDS011;2730;51.512;7.504;2023-11-22T02:14:20;8.40;;;4.10;;
5414;SDS011;2730;51.512;7.504;2023-11-22T02:16:47;9.05;;;4.38;;
5414;SDS011;2730;51.512;7.504;2023-11-22T02:19:15;9.23;;;3.97;;
5414;SDS011;2730;51.512;7.504;2023-11-22T02:21:43;5.78;;;3.75;;
5414;SDS011;2730;51.512;7.504;2023-11-22T02:24:11;7.10;;;4.10;;
5414;SDS011;2730;51.512;7.504;2023-11-22T02:26:42;7.13;;;3.72;;
5414;SDS011;2730;51.512;7.504;2023-11-22T02:29:11;9.80;;;4.63;;
5414;SDS011;2730;51.512;7.504;2023-11-22T02:31:38;6.18;;;3.70;;
5414;SDS011;2730;51.512;7.504;2023-11-22T02:34:06;4.05;;;3.33;;
5414;SDS011;2730;51.512;7.504;2023-11-22T02:36:32;6.93;;;4.00;;
5414;SDS011;2730;51.512;7.504;2023-11-22T02:38:59;7.10;;;3.83;;
5414;SDS011;2730;51.512;7.504;2023-11-22T02:41:28;6.80;;;3.20;;
5414;SDS011;2730;51.512;7.504;2023-11-22T02:43:55;5.88;;;3.25;;
5414;SDS011;2730;51.512;7.504;2023-11-22T02:46:22;11.07;;;3.97;;
5414;SDS011;2730;51.512;7.504;2023-11-22T02:48:49;8.60;;;3.95;;
5414;SDS011;2730;51.512;7.504;2023-11-22T02:58:09;5.38;;;4.18;;
5414;SDS011;2730;51.512;7.504;2023-11-22T03:00:37;8.32;;;4.00;;
5414;SDS011;2730;51.512;7.504;2023-11-22T03:03:06;7.68;;;4.68;;
5414;SDS011;2730;51.512;7.504;2023-11-22T03:05:35;7.15;;;4.40;;
5414;SDS011;2730;51.512;7.504;2023-11-22T03:08:02;8.70;;;3.60;;
5414;SDS011;2730;51.512;7.504;2023-11-22T03:10:32;9.07;;;4.35;;
5414;SDS011;2730;51.512;7.504;2023-11-22T03:12:59;8.63;;;4.15;;
5414;SDS011;2730;51.512;7.504;2023-11-22T03:15:27;6.32;;;3.70;;
5414;SDS011;2730;51.512;7.504;2023-11-22T03:17:54;8.60;;;4.50;;
5414;SDS011;2730;51.512;7.504;2023-11-22T03:20:21;8.13;;;3.75;;
5414;SDS011;2730;51.512;7.504;2023-11-22T03:22:47;8.77;;;3.78;;
5414;SDS011;2730;51.512;7.504;2023-11-22T03:25:15;6.60;;;3.50;;
5414;SDS011;2730;51.512;7.504;2023-11-22T03:27:43;6.57;;;3.42;;
5414;SDS011;2730;51.512;7.504;2023-11-22T03:30:12;4.75;;;3.20;;
5414;SDS011;2730;51.512;7.504;2023-11-22T03:32:41;7.97;;;4.85;;
5414;SDS011;2730;51.512;7.504;2023-11-22T03:35:09;5.00;;;2.90;;
5414;SDS011;2730;51.512;7.504;2023-11-22T03:37:37;14.02;;;3.47;;
5414;SDS011;2730;51.512;7.504;2023-11-22T03:40:04;5.97;;;3.22;;
5414;SDS011;2730;51.512;7.504;2023-11-22T03:42:34;10.57;;;3.13;;
5414;SDS011;2730;51.512;7.504;2023-11-22T03:45:02;6.30;;;3.45;;
5414;SDS011;2730;51.512;7.504;2023-11-22T03:47:29;5.68;;;2.67;;
5414;SDS011;2730;51.512;7.504;2023-11-22T03:49:59;7.78;;;3.53;;
5414;SDS011;2730;51.512;7.504;2023-11-22T03:52:26;3.65;;;2.65;;
5414;SDS011;2730;51.512;7.504;2023-11-22T03:54:53;7.03;;;2.97;;
5414;SDS011;2730;51.512;7.504;2023-11-22T03:57:19;6.28;;;3.50;;
5414;SDS011;2730;51.512;7.504;2023-11-22T03:59:46;8.15;;;3.63;;
5414;SDS011;2730;51.512;7.504;2023-11-22T04:02:13;6.28;;;3.15;;
5414;SDS011;2730;51.512;7.504;2023-11-22T04:04:40;4.80;;;2.92;;
5414;SDS011;2730;51.512;7.504;2023-11-22T04:07:08;3.22;;;2.92;;
5414;SDS011;2730;51.512;7.504;2023-11-22T04:09:35;6.65;;;3.28;;
5414;SDS011;2730;51.512;7.504;2023-11-22T04:12:03;5.15;;;3.13;;
5414;SDS011;2730;51.512;7.504;2023-11-22T04:14:30;6.45;;;3.40;;
5414;SDS011;2730;51.512;7.504;2023-11-22T04:16:57;6.03;;;3.60;;
5414;SDS011;2730;51.512;7.504;2023-11-22T04:19:24;4.20;;;2.55;;
5414;SDS011;2730;51.512;7.504;2023-11-22T04:21:51;5.97;;;3.05;;
5414;SDS011;2730;51.512;7.504;2023-11-22T04:24:20;8.18;;;3.88;;
5414;SDS011;2730;51.512;7.504;2023-11-22T04:26:47;8.90;;;4.15;;
5414;SDS011;2730;51.512;7.504;2023-11-22T04:29:14;4.28;;;3.20;;
5414;SDS011;2730;51.512;7.504;2023-11-22T04:31:41;4.10;;;3.30;;
5414;SDS011;2730;51.512;7.504;2023-11-22T04:34:08;5.95;;;3.03;;
5414;SDS011;2730;51.512;7.504;2023-11-22T04:36:35;6.93;;;3.80;;
5414;SDS011;2730;51.512;7.504;2023-11-22T04:39:03;5.93;;;3.15;;
5414;SDS011;2730;51.512;7.504;2023-11-22T04:41:33;3.15;;;2.85;;
5414;SDS011;2730;51.512;7.504;2023-11-22T04:44:00;5.63;;;2.35;;
5414;SDS011;2730;51.512;7.504;2023-11-22T04:46:27;2.88;;;2.65;;
5414;SDS011;2730;51.512;7.504;2023-11-22T04:48:54;6.55;;;2.95;;
5414;SDS011;2730;51.512;7.504;2023-11-22T04:51:22;7.93;;;4.07;;
5414;SDS011;2730;51.512;7.504;2023-11-22T04:53:49;6.45;;;3.67;;
5414;SDS011;2730;51.512;7.504;2023-11-22T04:56:16;5.45;;;3.15;;
5414;SDS011;2730;51.512;7.504;2023-11-22T04:58:44;5.85;;;2.63;;
5414;SDS011;2730;51.512;7.504;2023-11-22T05:01:11;7.25;;;3.70;;
5414;SDS011;2730;51.512;7.504;2023-11-22T05:03:38;4.22;;;2.80;;
5414;SDS011;2730;51.512;7.504;2023-11-22T05:06:05;6.00;;;3.33;;
5414;SDS011;2730;51.512;7.504;2023-11-22T05:08:32;8.25;;;3.15;;
5414;SDS011;2730;51.512;7.504;2023-11-22T05:10:59;4.47;;;2.50;;
5414;SDS011;2730;51.512;7.504;2023-11-22T05:13:26;9.85;;;4.30;;
5414;SDS011;2730;51.512;7.504;2023-11-22T05:19:01;4.80;;;3.60;;
5414;SDS011;2730;51.512;7.504;2023-11-22T05:21:28;3.53;;;3.05;;
5414;SDS011;2730;51.512;7.504;2023-11-22T05:23:57;7.10;;;3.30;;
5414;SDS011;2730;51.512;7.504;2023-11-22T05:26:25;3.35;;;2.60;;
5414;SDS011;2730;51.512;7.504;2023-11-22T05:28:52;6.05;;;3.25;;
5414;SDS011;2730;51.512;7.504;2023-11-22T05:31:19;6.75;;;3.25;;
5414;SDS011;2730;51.512;7.504;2023-11-22T05:33:48;8.23;;;3.70;;
5414;SDS011;2730;51.512;7.504;2023-11-22T05:36:16;5.55;;;3.55;;
5414;SDS011;2730;51.512;7.504;2023-11-22T05:38:43;7.50;;;3.70;;
5414;SDS011;2730;51.512;7.504;2023-11-22T05:41:10;6.90;;;2.50;;
5414;SDS011;2730;51.512;7.504;2023-11-22T05:43:37;7.10;;;3.65;;
5414;SDS011;2730;51.512;7.504;2023-11-22T05:46:04;6.53;;;3.42;;
5414;SDS011;2730;51.512;7.504;2023-11-22T05:48:31;6.32;;;3.20;;
5414;SDS011;2730;51.512;7.504;2023-11-22T05:50:59;3.90;;;3.33;;
5414;SDS011;2730;51.512;7.504;2023-11-22T05:53:27;6.10;;;3.50;;
5414;SDS011;2730;51.512;7.504;2023-11-22T05:55:54;11.23;;;4.43;;
5414;SDS011;2730;51.512;7.504;2023-11-22T05:58:21;5.20;;;3.40;;
5414;SDS011;2730;51.512;7.504;2023-11-22T06:00:47;7.05;;;3.20;;
5414;SDS011;2730;51.512;7.504;2023-11-22T06:03:14;5.63;;;3.05;;
5414;SDS011;2730;51.512;7.504;2023-11-22T06:05:41;9.73;;;4.30;;
5414;SDS011;2730;51.512;7.504;2023-11-22T06:08:08;6.68;;;3.35;;
5414;SDS011;2730;51.512;7.504;2023-11-22T06:10:36;4.88;;;3.58;;
5414;SDS011;2730;51.512;7.504;2023-11-22T06:13:06;7.43;;;3.80;;
5414;SDS011;2730;51.512;7.504;2023-11-22T06:15:34;7.90;;;3.47;;
5414;SDS011;2730;51.512;7.504;2023-11-22T06:18:00;4.97;;;3.10;;
5414;SDS011;2730;51.512;7.504;2023-11-22T06:20:27;7.03;;;3.67;;
5414;SDS011;2730;51.512;7.504;2023-11-22T06:22:54;5.70;;;3.30;;
5414;SDS011;2730;51.512;7.504;2023-11-22T06:25:21;12.15;;;3.80;;
5414;SDS011;2730;51.512;7.504;2023-11-22T06:27:51;7.28;;;3.38;;
5414;SDS011;2730;51.512;7.504;2023-11-22T06:30:18;6.07;;;3.28;;
5414;SDS011;2730;51.512;7.504;2023-11-22T06:32:48;5.95;;;2.95;;
5414;SDS011;2730;51.512;7.504;2023-11-22T06:35:15;16.38;;;3.53;;
5414;SDS011;2730;51.512;7.504;2023-11-22T06:37:43;10.65;;;4.28;;
5414;SDS011;2730;51.512;7.504;2023-11-22T06:40:10;8.95;;;3.60;;
5414;SDS011;2730;51.512;7.504;2023-11-22T06:42:38;6.22;;;3.90;;
5414;SDS011;2730;51.512;7.504;2023-11-22T06:45:07;5.07;;;3.60;;
5414;SDS011;2730;51.512;7.504;2023-11-22T06:47:35;5.68;;;3.22;;
5414;SDS011;2730;51.512;7.504;2023-11-22T06:50:02;5.57;;;3.03;;
5414;SDS011;2730;51.512;7.504;2023-11-22T06:52:34;5.68;;;4.13;;
5414;SDS011;2730;51.512;7.504;2023-11-22T06:55:01;9.05;;;4.15;;
5414;SDS011;2730;51.512;7.504;2023-11-22T06:57:27;6.47;;;3.90;;
5414;SDS011;2730;51.512;7.504;2023-11-22T06:59:54;4.13;;;3.70;;
5414;SDS011;2730;51.512;7.504;2023-11-22T07:02:23;4.07;;;3.33;;
5414;SDS011;2730;51.512;7.504;2023-11-22T07:04:50;8.95;;;3.65;;
5414;SDS011;2730;51.512;7.504;2023-11-22T07:07:18;11.73;;;4.10;;
5414;SDS011;2730;51.512;7.504;2023-11-22T07:09:45;6.75;;;3.75;;
5414;SDS011;2730;51.512;7.504;2023-11-22T07:12:13;9.18;;;4.18;;
5414;SDS011;2730;51.512;7.504;2023-11-22T07:14:40;7.45;;;4.03;;
5414;SDS011;2730;51.512;7.504;2023-11-22T07:17:08;5.32;;;3.40;;
5414;SDS011;2730;51.512;7.504;2023-11-22T07:19:36;4.85;;;2.88;;
5414;SDS011;2730;51.512;7.504;2023-11-22T07:22:04;7.97;;;3.88;;
5414;SDS011;2730;51.512;7.504;2023-11-22T07:24:40;5.68;;;3.53;;
5414;SDS011;2730;51.512;7.504;2023-11-22T07:27:09;9.35;;;3.67;;
5414;SDS011;2730;51.512;7.504;2023-11-22T07:29:37;9.85;;;4.80;;
5414;SDS011;2730;51.512;7.504;2023-11-22T07:32:04;15.82;;;5.70;;
5414;SDS011;2730;51.512;7.504;2023-11-22T07:34:32;3.90;;;3.40;;
5414;SDS011;2730;51.512;7.504;2023-11-22T07:37:01;7.25;;;4.40;;
5414;SDS011;2730;51.512;7.504;2023-11-22T07:39:28;7.93;;;4.50;;
5414;SDS011;2730;51.512;7.504;2023-11-22T07:41:55;10.30;;;4.70;;
5414;SDS011;2730;51.512;7.504;2023-11-22T07:44:22;12.20;;;4.97;;
5414;SDS011;2730;51.512;7.504;2023-11-22T07:46:49;11.32;;;5.20;;
5414;SDS011;2730;51.512;7.504;2023-11-22T07:49:17;18.27;;;5.05;;
5414;SDS011;2730;51.512;7.504;2023-11-22T07:51:45;13.48;;;5.53;;
5414;SDS011;2730;51.512;7.504;2023-11-22T07:54:13;14.80;;;5.85;;
5414;SDS011;2730;51.512;7.504;2023-11-22T07:56:40;7.28;;;4.32;;
5414;SDS011;2730;51.512;7.504;2023-11-22T07:59:08;11.35;;;5.15;;
5414;SDS011;2730;51.512;7.504;2023-11-22T08:01:36;11.07;;;6.40;;
5414;SDS011;2730;51.512;7.504;2023-11-22T08:04:04;9.50;;;5.32;;
5414;SDS011;2730;51.512;7.504;2023-11-22T08:06:32;7.97;;;4.45;;
5414;SDS011;2730;51.512;7.504;2023-11-22T08:09:00;6.30;;;4.38;;
5414;SDS011;2730;51.512;7.504;2023-11-22T08:11:28;11.98;;;5.43;;
5414;SDS011;2730;51.512;7.504;2023-11-22T08:13:56;8.32;;;4.22;;
5414;SDS011;2730;51.512;7.504;2023-11-22T08:16:24;13.98;;;5.43;;
5414;SDS011;2730;51.512;7.504;2023-11-22T08:18:51;10.05;;;5.78;;
5414;SDS011;2730;51.512;7.504;2023-11-22T08:21:19;12.70;;;5.63;;
5414;SDS011;2730;51.512;7.504;2023-11-22T08:23:45;7.82;;;4.10;;
5414;SDS011;2730;51.512;7.504;2023-11-22T08:26:13;10.13;;;5.03;;
5414;SDS011;2730;51.512;7.504;2023-11-22T08:28:41;8.27;;;5.22;;
5414;SDS011;2730;51.512;7.504;2023-11-22T08:31:09;6.75;;;5.15;;
5414;SDS011;2730;51.512;7.504;2023-11-22T08:33:36;13.48;;;5.15;;
5414;SDS011;2730;51.512;7.504;2023-11-22T08:36:04;7.43;;;4.07;;
5414;SDS011;2730;51.512;7.504;2023-11-22T08:38:31;8.20;;;4.28;;
5414;SDS011;2730;51.512;7.504;2023-11-22T08:41:00;5.93;;;4.03;;
5414;SDS011;2730;51.512;7.504;2023-11-22T08:43:37;8.63;;;4.78;;
5414;SDS011;2730;51.512;7.504;2023-11-22T08:46:05;6.97;;;4.60;;
5414;SDS011;2730;51.512;7.504;2023-11-22T08:48:33;11.52;;;3.50;;
5414;SDS011;2730;51.512;7.504;2023-11-22T08:51:00;16.10;;;4.47;;
5414;SDS011;2730;51.512;7.504;2023-11-22T08:53:29;7.10;;;3.72;;
5414;SDS011;2730;51.512;7.504;2023-11-22T08:55:56;9.68;;;3.78;;
5414;SDS011;2730;51.512;7.504;2023-11-22T08:58:22;6.70;;;3.90;;
5414;SDS011;2730;51.512;7.504;2023-11-22T09:00:50;5.80;;;3.42;;
5414;SDS011;2730;51.512;7.504;2023-11-22T09:03:18;6.28;;;3.92;;
5414;SDS011;2730;51.512;7.504;2023-11-22T09:05:45;5.15;;;3.70;;
5414;SDS011;2730;51.512;7.504;2023-11-22T09:08:12;4.85;;;3.63;;
5414;SDS011;2730;51.512;7.504;2023-11-22T09:10:40;6.85;;;3.45;;
5414;SDS011;2730;51.512;7.504;2023-11-22T09:13:07;3.55;;;3.22;;
5414;SDS011;2730;51.512;7.504;2023-11-22T09:15:34;10.63;;;3.88;;
5414;SDS011;2730;51.512;7.504;2023-11-22T09:18:01;4.68;;;3.10;;
5414;SDS011;2730;51.512;7.504;2023-11-22T09:20:29;3.60;;;3.00;;
5414;SDS011;2730;51.512;7.504;2023-11-22T09:22:56;4.82;;;3.58;;
5414;SDS011;2730;51.512;7.504;2023-11-22T09:25:24;6.63;;;3.33;;
5414;SDS011;2730;51.512;7.504;2023-11-22T09:27:53;6.70;;;3.50;;
5414;SDS011;2730;51.512;7.504;2023-11-22T09:30:26;3.45;;;2.53;;
5414;SDS011;2730;51.512;7.504;2023-11-22T09:33:03;5.65;;;3.08;;
5414;SDS011;2730;51.512;7.504;2023-11-22T09:35:33;4.13;;;3.05;;
5414;SDS011;2730;51.512;7.504;2023-11-22T09:38:01;8.35;;;3.30;;
5414;SDS011;2730;51.512;7.504;2023-11-22T09:43:43;3.90;;;2.88;;
5414;SDS011;2730;51.512;7.504;2023-11-22T09:46:14;2.88;;;2.67;;
5414;SDS011;2730;51.512;7.504;2023-11-22T09:48:44;3.75;;;3.00;;
5414;SDS011;2730;51.512;7.504;2023-11-22T09:51:19;5.47;;;3.30;;
5414;SDS011;2730;51.512;7.504;2023-11-22T09:53:52;4.22;;;2.58;;
5414;SDS011;2730;51.512;7.504;2023-11-22T09:56:21;3.15;;;2.47;;
5414;SDS011;2730;51.512;7.504;2023-11-22T09:58:51;2.22;;;2.00;;
5414;SDS011;2730;51.512;7.504;2023-11-22T10:01:19;2.75;;;2.40;;
5414;SDS011;2730;51.512;7.504;2023-11-22T10:03:47;3.47;;;2.95;;
5414;SDS011;2730;51.512;7.504;2023-11-22T10:06:15;2.78;;;2.17;;
5414;SDS011;2730;51.512;7.504;2023-11-22T10:08:44;3.75;;;2.10;;
5414;SDS011;2730;51.512;7.504;2023-11-22T10:11:12;2.83;;;2.50;;
5414;SDS011;2730;51.512;7.504;2023-11-22T10:13:42;3.08;;;2.38;;
5414;SDS011;2730;51.512;7.504;2023-11-22T10:16:11;4.03;;;2.80;;
5414;SDS011;2730;51.512;7.504;2023-11-22T10:18:41;4.47;;;2.90;;
5414;SDS011;2730;51.512;7.504;2023-11-22T10:21:21;4.65;;;3.00;;
5414;SDS011;2730;51.512;7.504;2023-11-22T10:23:50;4.45;;;2.58;;
5414;SDS011;2730;51.512;7.504;2023-11-22T10:26:21;5.20;;;2.10;;
5414;SDS011;2730;51.512;7.504;2023-11-22T10:28:50;3.30;;;2.50;;
5414;SDS011;2730;51.512;7.504;2023-11-22T10:31:17;9.32;;;4.03;;
5414;SDS011;2730;51.512;7.504;2023-11-22T10:33:45;2.63;;;2.30;;
5414;SDS011;2730;51.512;7.504;2023-11-22T10:36:12;3.30;;;2.50;;
5414;SDS011;2730;51.512;7.504;2023-11-22T10:38:40;3.50;;;2.78;;
5414;SDS011;2730;51.512;7.504;2023-11-22T10:41:08;2.30;;;2.00;;
5414;SDS011;2730;51.512;7.504;2023-11-22T10:43:35;3.80;;;2.10;;
5414;SDS011;2730;51.512;7.504;2023-11-22T10:46:04;2.42;;;2.20;;
5414;SDS011;2730;51.512;7.504;2023-11-22T10:48:31;3.33;;;2.58;;
5414;SDS011;2730;51.512;7.504;2023-11-22T10:51:00;5.15;;;2.30;;
5414;SDS011;2730;51.512;7.504;2023-11-22T10:53:30;3.47;;;2.78;;
5414;SDS011;2730;51.512;7.504;2023-11-22T10:56:01;4.85;;;3.17;;
5414;SDS011;2730;51.512;7.504;2023-11-22T10:58:32;5.55;;;2.40;;
5414;SDS011;2730;51.512;7.504;2023-11-22T11:01:00;5.03;;;2.42;;
5414;SDS011;2730;51.512;7.504;2023-11-22T11:03:31;3.25;;;2.45;;
5414;SDS011;2730;51.512;7.504;2023-11-22T11:06:05;6.00;;;2.88;;
5414;SDS011;2730;51.512;7.504;2023-11-22T11:08:35;6.03;;;2.80;;
5414;SDS011;2730;51.512;7.504;2023-11-22T11:11:04;4.72;;;3.08;;
5414;SDS011;2730;51.512;7.504;2023-11-22T11:13:33;3.13;;;2.70;;
5414;SDS011;2730;51.512;7.504;2023-11-22T11:16:00;9.50;;;4.25;;
5414;SDS011;2730;51.512;7.504;2023-11-22T11:18:28;5.35;;;3.53;;
5414;SDS011;2730;51.512;7.504;2023-11-22T11:20:55;3.70;;;3.20;;
5414;SDS011;2730;51.512;7.504;2023-11-22T11:23:25;2.67;;;2.47;;
5414;SDS011;2730;51.512;7.504;2023-11-22T11:25:53;3.25;;;2.40;;
5414;SDS011;2730;51.512;7.504;2023-11-22T11:28:21;6.15;;;3.30;;
5414;SDS011;2730;51.512;7.504;2023-11-22T11:30:52;3.92;;;2.40;;
5414;SDS011;2730;51.512;7.504;2023-11-22T11:33:19;5.57;;;3.25;;
5414;SDS011;2730;51.512;7.504;2023-11-22T11:35:54;4.68;;;3.00;;
5414;SDS011;2730;51.512;7.504;2023-11-22T11:38:30;4.68;;;2.30;;
5414;SDS011;2730;51.512;7.504;2023-11-22T11:41:05;7.72;;;2.97;;
5414;SDS011;2730;51.512;7.504;2023-11-22T11:43:39;3.28;;;2.10;;
5414;SDS011;2730;51.512;7.504;2023-11-22T11:46:08;2.92;;;1.98;;
5414;SDS011;2730;51.512;7.504;2023-11-22T11:48:36;5.38;;;2.20;;
5414;SDS011;2730;51.512;7.504;2023-11-22T11:51:03;1.85;;;1.63;;
5414;SDS011;2730;51.512;7.504;2023-11-22T11:53:32;2.13;;;2.03;;
5414;SDS011;2730;51.512;7.504;2023-11-22T11:55:59;3.95;;;2.13;;
5414;SDS011;2730;51.512;7.504;2023-11-22T11:58:27;5.32;;;2.10;;
5414;SDS011;2730;51.512;7.504;2023-11-22T12:00:54;2.70;;;1.83;;
5414;SDS011;2730;51.512;7.504;2023-11-22T12:03:22;2.05;;;1.75;;
5414;SDS011;2730;51.512;7.504;2023-11-22T12:05:49;1.60;;;1.50;;
5414;SDS011;2730;51.512;7.504;2023-11-22T12:08:16;4.75;;;2.00;;
5414;SDS011;2730;51.512;7.504;2023-11-22T12:10:45;1.75;;;1.55;;
5414;SDS011;2730;51.512;7.504;2023-11-22T12:13:13;2.92;;;2.05;;
5414;SDS011;2730;51.512;7.504;2023-11-22T12:15:43;2.58;;;1.85;;
5414;SDS011;2730;51.512;7.504;2023-11-22T12:18:10;2.78;;;1.90;;
5414;SDS011;2730;51.512;7.504;2023-11-22T12:20:38;5.00;;;1.98;;
5414;SDS011;2730;51.512;7.504;2023-11-22T12:23:05;1.70;;;1.60;;
5414;SDS011;2730;51.512;7.504;2023-11-22T12:25:33;2.30;;;1.70;;
5414;SDS011;2730;51.512;7.504;2023-11-22T12:28:01;4.70;;;2.15;;
5414;SDS011;2730;51.512;7.504;2023-11-22T12:30:29;2.45;;;1.60;;
5414;SDS011;2730;51.512;7.504;2023-11-22T12:33:00;1.40;;;1.30;;
5414;SDS011;2730;51.512;7.504;2023-11-22T12:35:29;2.10;;;1.70;;
5414;SDS011;2730;51.512;7.504;2023-11-22T12:37:59;2.53;;;1.20;;
5414;SDS011;2730;51.512;7.504;2023-11-22T12:40:27;2.10;;;1.65;;
5414;SDS011;2730;51.512;7.504;2023-11-22T12:42:56;2.05;;;1.70;;
5414;SDS011;2730;51.512;7.504;2023-11-22T12:45:24;3.05;;;1.95;;
5414;SDS011;2730;51.512;7.504;2023-11-22T12:47:53;2.50;;;1.50;;
5414;SDS011;2730;51.512;7.504;2023-11-22T12:50:30;2.55;;;2.33;;
5414;SDS011;2730;51.512;7.504;2023-11-22T12:53:08;2.28;;;1.95;;
5414;SDS011;2730;51.512;7.504;2023-11-22T12:55:37;2.65;;;1.80;;
5414;SDS011;2730;51.512;7.504;2023-11-22T12:58:04;2.97;;;1.85;;
5414;SDS011;2730;51.512;7.504;2023-11-22T13:00:32;6.47;;;2.50;;
5414;SDS011;2730;51.512;7.504;2023-11-22T13:02:59;2.45;;;1.77;;
5414;SDS011;2730;51.512;7.504;2023-11-22T13:05:26;2.25;;;1.75;;
5414;SDS011;2730;51.512;7.504;2023-11-22T13:07:53;4.15;;;1.60;;
5414;SDS011;2730;51.512;7.504;2023-11-22T13:10:21;3.75;;;2.13;;
5414;SDS011;2730;51.512;7.504;2023-11-22T13:12:51;1.42;;;1.33;;
5414;SDS011;2730;51.512;7.504;2023-11-22T13:15:19;2.92;;;1.80;;
5414;SDS011;2730;51.512;7.504;2023-11-22T13:17:48;1.80;;;1.55;;
5414;SDS011;2730;51.512;7.504;2023-11-22T13:20:15;1.60;;;1.20;;
5414;SDS011;2730;51.512;7.504;2023-11-22T13:22:45;2.22;;;1.50;;
5414;SDS011;2730;51.512;7.504;2023-11-22T13:25:12;1.30;;;1.20;;
5414;SDS011;2730;51.512;7.504;2023-11-22T13:27:41;1.48;;;1.38;;
5414;SDS011;2730;51.512;7.504;2023-11-22T13:30:07;1.48;;;1.30;;
5414;SDS011;2730;51.512;7.504;2023-11-22T13:32:35;1.90;;;1.42;;
5414;SDS011;2730;51.512;7.504;2023-11-22T13:35:02;1.90;;;1.80;;
5414;SDS011;2730;51.512;7.504;2023-11-22T13:37:35;1.35;;;1.15;;
5414;SDS011;2730;51.512;7.504;2023-11-22T13:40:02;1.85;;;1.60;;
5414;SDS011;2730;51.512;7.504;2023-11-22T13:42:36;1.40;;;1.30;;
5414;SDS011;2730;51.512;7.504;2023-11-22T13:45:05;4.75;;;1.20;;
5414;SDS011;2730;51.512;7.504;2023-11-22T13:47:33;1.25;;;1.20;;
5414;SDS011;2730;51.512;7.504;2023-11-22T13:49:59;2.13;;;1.52;;
5414;SDS011;2730;51.512;7.504;2023-11-22T13:52:28;3.72;;;1.45;;
5414;SDS011;2730;51.512;7.504;2023-11-22T13:54:55;2.75;;;1.67;;
5414;SDS011;2730;51.512;7.504;2023-11-22T13:57:22;1.27;;;1.17;;
5414;SDS011;2730;51.512;7.504;2023-11-22T13:59:49;1.40;;;1.30;;
5414;SDS011;2730;51.512;7.504;2023-11-22T14:02:17;1.33;;;1.13;;
5414;SDS011;2730;51.512;7.504;2023-11-22T14:04:44;1.77;;;1.60;;
5414;SDS011;2730;51.512;7.504;2023-11-22T14:07:11;3.05;;;1.70;;
5414;SDS011;2730;51.512;7.504;2023-11-22T14:09:38;3.15;;;1.70;;
5414;SDS011;2730;51.512;7.504;2023-11-22T14:12:05;3.20;;;1.67;;
5414;SDS011;2730;51.512;7.504;2023-11-22T14:14:31;1.85;;;1.52;;
5414;SDS011;2730;51.512;7.504;2023-11-22T14:16:58;1.85;;;1.75;;
5414;SDS011;2730;51.512;7.504;2023-11-22T14:19:26;2.08;;;1.80;;
5414;SDS011;2730;51.512;7.504;2023-11-22T14:21:53;1.83;;;1.67;;
5414;SDS011;2730;51.512;7.504;2023-11-22T14:24:20;1.98;;;1.30;;
5414;SDS011;2730;51.512;7.504;2023-11-22T14:26:46;2.90;;;1.85;;
5414;SDS011;2730;51.512;7.504;2023-11-22T14:29:14;2.40;;;1.80;;
5414;SDS011;2730;51.512;7.504;2023-11-22T14:31:41;1.30;;;1.20;;
5414;SDS011;2730;51.512;7.504;2023-11-22T14:34:09;1.50;;;1.40;;
5414;SDS011;2730;51.512;7.504;2023-11-22T14:36:38;2.97;;;1.50;;
5414;SDS011;2730;51.512;7.504;2023-11-22T14:39:05;2.15;;;1.40;;
5414;SDS011;2730;51.512;7.504;2023-11-22T14:41:32;5.10;;;1.60;;
5414;SDS011;2730;51.512;7.504;2023-11-22T14:44:00;2.22;;;1.67;;
5414;SDS011;2730;51.512;7.504;2023-11-22T14:46:27;1.85;;;1.55;;
5414;SDS011;2730;51.512;7.504;2023-11-22T14:48:54;1.88;;;1.70;;
5414;SDS011;2730;51.512;7.504;2023-11-22T14:51:20;4.57;;;1.55;;
5414;SDS011;2730;51.512;7.504;2023-11-22T14:53:49;2.38;;;1.40;;
5414;SDS011;2730;51.512;7.504;2023-11-22T14:56:16;1.70;;;1.60;;
5414;SDS011;2730;51.512;7.504;2023-11-22T14:58:43;1.98;;;1.63;;
5414;SDS011;2730;51.512;7.504;2023-11-22T15:01:18;1.75;;;1.63;;
5414;SDS011;2730;51.512;7.504;2023-11-22T15:03:46;1.60;;;1.50;;
5414;SDS011;2730;51.512;7.504;2023-11-22T15:06:14;2.88;;;1.58;;
5414;SDS011;2730;51.512;7.504;2023-11-22T15:08:40;3.08;;;1.17;;
5414;SDS011;2730;51.512;7.504;2023-11-22T15:11:08;1.35;;;1.25;;
5414;SDS011;2730;51.512;7.504;2023-11-22T15:13:35;1.30;;;1.20;;
5414;SDS011;2730;51.512;7.504;2023-11-22T15:16:02;1.95;;;1.85;;
5414;SDS011;2730;51.512;7.504;2023-11-22T15:18:30;4.88;;;1.27;;
5414;SDS011;2730;51.512;7.504;2023-11-22T15:20:57;2.78;;;1.38;;
5414;SDS011;2730;51.512;7.504;2023-11-22T15:23:24;2.30;;;1.45;;
5414;SDS011;2730;51.512;7.504;2023-11-22T15:25:50;2.15;;;1.85;;
5414;SDS011;2730;51.512;7.504;2023-11-22T15:28:19;1.58;;;1.48;;
5414;SDS011;2730;51.512;7.504;2023-11-22T15:30:48;1.50;;;1.40;;
5414;SDS011;2730;51.512;7.504;2023-11-22T15:33:21;1.27;;;1.20;;